Time;durP1;ratioP1;P1;durP2;ratioP2;P2;SDS_P1;SDS_P2;PMS_P1;PMS_P2;Temp;Humidity;BMP_temperature;BMP_pressure;BME280_temperature;BME280_humidity;BME280_pressure;Samples;Min_cycle;Max_cycle;Signal;HPM_P1;HPM_P2
2022/11/23 00:01:50;;;;;;;6.27;1.90;;;6.90;99.90;;;;;;5075948;28;20215;-57
2022/11/23 00:04:17;;;;;;;4.40;1.90;;;6.80;99.90;;;;;;5075048;28;20218;-58
2022/11/23 00:06:43;;;;;;;4.90;1.87;;;6.80;99.90;;;;;;5074325;28;20219;-57
2022/11/23 00:09:11;;;;;;;3.80;1.53;;;6.80;99.90;;;;;;5074814;28;20673;-57
2022/11/23 00:11:38;;;;;;;6.33;1.67;;;6.80;99.90;;;;;;5075216;28;20207;-57
2022/11/23 00:14:05;;;;;;;4.43;1.57;;;6.70;99.90;;;;;;5075092;28;20204;-57
2022/11/23 00:16:33;;;;;;;2.93;1.53;;;6.70;99.90;;;;;;5074148;28;20228;-60
2022/11/23 00:19:02;;;;;;;4.50;1.53;;;6.70;99.90;;;;;;5074805;28;20703;-57
2022/11/23 00:21:31;;;;;;;3.50;1.70;;;6.70;99.90;;;;;;5074431;28;20250;-58
2022/11/23 00:23:58;;;;;;;4.33;1.53;;;6.80;99.90;;;;;;5074547;28;20215;-57
2022/11/23 00:26:26;;;;;;;2.97;1.50;;;6.70;99.90;;;;;;5074072;28;20585;-57
2022/11/23 00:28:53;;;;;;;5.90;1.77;;;6.80;99.90;;;;;;5073716;28;20239;-57
2022/11/23 00:31:21;;;;;;;5.57;2.40;;;6.80;99.90;;;;;;5074395;28;20712;-57
2022/11/23 00:33:53;;;;;;;5.57;1.80;;;6.80;99.90;;;;;;5074577;28;20604;-57
2022/11/23 00:36:21;;;;;;;5.77;2.10;;;6.90;99.90;;;;;;5073872;28;20327;-57
2022/11/23 00:38:48;;;;;;;4.17;1.60;;;6.90;99.90;;;;;;5073994;28;20668;-57
2022/11/23 00:41:17;;;;;;;3.83;1.83;;;6.90;99.90;;;;;;5073954;28;20248;-57
2022/11/23 00:43:45;;;;;;;6.07;1.87;;;7.00;99.90;;;;;;5074073;28;20204;-57
2022/11/23 00:46:14;;;;;;;5.37;2.23;;;7.00;99.90;;;;;;5073990;28;20227;-57
2022/11/23 00:48:41;;;;;;;4.93;2.50;;;7.00;99.90;;;;;;5074369;28;20574;-57
2022/11/23 00:51:11;;;;;;;5.13;2.07;;;7.10;99.90;;;;;;5073487;28;20316;-58
2022/11/23 00:53:38;;;;;;;4.60;1.90;;;7.20;99.90;;;;;;5073962;28;20209;-57
2022/11/23 00:56:05;;;;;;;6.67;1.97;;;7.30;99.90;;;;;;5073323;28;20224;-57
2022/11/23 00:58:33;;;;;;;5.40;1.70;;;7.40;99.90;;;;;;5073915;28;20216;-57
2022/11/23 01:01:03;;;;;;;5.60;1.50;;;7.40;99.90;;;;;;5073687;28;20239;-57
2022/11/23 01:03:30;;;;;;;3.40;1.60;;;7.40;99.90;;;;;;5074268;28;20213;-57
2022/11/23 01:06:02;;;;;;;3.70;1.80;;;7.40;99.90;;;;;;5073202;28;20219;-57
2022/11/23 01:08:31;;;;;;;6.20;1.93;;;7.50;99.90;;;;;;5074313;28;20688;-57
2022/11/23 01:11:02;;;;;;;2.50;1.40;;;7.60;99.90;;;;;;5073575;28;20244;-57
2022/11/23 01:13:29;;;;;;;3.27;1.30;;;7.70;99.90;;;;;;5074192;28;20580;-57
2022/11/23 01:15:56;;;;;;;5.93;1.50;;;7.90;99.90;;;;;;5072812;28;20215;-57
2022/11/23 01:18:24;;;;;;;5.17;1.90;;;7.90;99.90;;;;;;5073313;28;20243;-57
2022/11/23 01:20:50;;;;;;;5.40;1.50;;;8.00;99.90;;;;;;5088364;22;20229;-65
2022/11/23 01:23:17;;;;;;;6.43;2.00;;;8.00;99.90;;;;;;5041835;28;20212;-65
2022/11/23 01:25:46;;;;;;;5.13;1.50;;;8.10;99.90;;;;;;5031846;28;20216;-65
2022/11/23 01:28:13;;;;;;;4.17;1.67;;;8.20;99.90;;;;;;5032295;28;20209;-64
2022/11/23 01:30:39;;;;;;;4.13;1.33;;;8.20;99.90;;;;;;5032469;28;20222;-64
2022/11/23 01:33:06;;;;;;;5.90;1.67;;;8.30;99.90;;;;;;5032136;28;20214;-65
2022/11/23 01:35:33;;;;;;;6.27;1.60;;;8.40;99.90;;;;;;5031487;28;20546;-65
2022/11/23 01:38:00;;;;;;;2.53;1.37;;;8.40;99.90;;;;;;5032291;28;20234;-65
2022/11/23 01:40:26;;;;;;;3.60;1.60;;;8.50;99.90;;;;;;5031099;28;20234;-65
2022/11/23 01:42:57;;;;;;;4.40;1.87;;;8.50;99.90;;;;;;5032256;28;20206;-65
2022/11/23 01:45:33;;;;;;;5.80;1.83;;;8.50;99.90;;;;;;5032328;28;20218;-65
2022/11/23 01:48:01;;;;;;;4.73;1.80;;;8.50;99.90;;;;;;5032445;28;20232;-64
2022/11/23 01:50:28;;;;;;;4.60;1.43;;;8.70;99.90;;;;;;5032334;28;20230;-64
2022/11/23 01:52:56;;;;;;;4.77;1.47;;;8.60;99.90;;;;;;5032149;28;20206;-65
2022/11/23 01:55:23;;;;;;;3.90;1.30;;;8.60;99.90;;;;;;5032042;28;20206;-65
2022/11/23 01:57:49;;;;;;;2.67;1.40;;;8.50;99.90;;;;;;5031605;28;20233;-64
2022/11/23 02:00:18;;;;;;;5.97;1.40;;;8.60;99.90;;;;;;5031911;28;20245;-64
2022/11/23 02:02:50;;;;;;;4.57;1.50;;;8.50;99.90;;;;;;5032132;28;20658;-63
2022/11/23 02:05:19;;;;;;;5.37;1.60;;;8.60;99.90;;;;;;5032215;28;20217;-64
2022/11/23 02:07:47;;;;;;;6.43;1.77;;;8.50;99.90;;;;;;5031793;28;20209;-65
2022/11/23 02:10:15;;;;;;;4.93;1.50;;;8.40;99.90;;;;;;5032454;28;20228;-64
2022/11/23 02:12:42;;;;;;;3.97;1.60;;;8.30;99.90;;;;;;5032488;28;20214;-64
2022/11/23 02:15:09;;;;;;;2.70;1.20;;;8.20;99.90;;;;;;5032131;28;20201;-64
2022/11/23 02:17:37;;;;;;;4.03;1.40;;;8.00;99.90;;;;;;5031362;28;20226;-64
2022/11/23 02:20:08;;;;;;;2.97;1.67;;;7.90;99.90;;;;;;5031791;28;20206;-64
2022/11/23 02:22:41;;;;;;;4.20;1.70;;;7.80;99.90;;;;;;5031854;28;20221;-64
2022/11/23 02:25:15;;;;;;;5.00;1.63;;;7.60;99.90;;;;;;5031629;28;20233;-64
2022/11/23 02:27:43;;;;;;;4.80;1.77;;;7.40;99.90;;;;;;5031746;28;20225;-65
2022/11/23 02:30:11;;;;;;;3.90;1.50;;;7.40;99.90;;;;;;5032210;28;20585;-65
2022/11/23 02:32:38;;;;;;;3.23;1.33;;;7.30;99.90;;;;;;5032740;28;20256;-65
2022/11/23 02:35:05;;;;;;;4.23;1.40;;;7.30;99.90;;;;;;5031817;28;20233;-64
2022/11/23 02:37:32;;;;;;;3.77;1.50;;;7.20;99.90;;;;;;5030984;28;20234;-65
2022/11/23 02:40:01;;;;;;;4.27;1.70;;;7.10;99.90;;;;;;5031616;28;20214;-64
2022/11/23 02:42:29;;;;;;;3.97;1.60;;;6.90;99.90;;;;;;5031946;28;20300;-64
2022/11/23 02:45:06;;;;;;;5.37;1.83;;;6.70;99.90;;;;;;5031872;28;20212;-66
2022/11/23 02:47:32;;;;;;;2.93;1.40;;;6.60;99.90;;;;;;5031222;28;20206;-65
2022/11/23 02:49:59;;;;;;;5.63;1.53;;;6.70;99.90;;;;;;5033058;28;20212;-64
2022/11/23 02:52:26;;;;;;;4.73;1.80;;;6.50;99.90;;;;;;5036756;28;20210;-63
2022/11/23 02:54:53;;;;;;;4.87;1.60;;;6.50;99.90;;;;;;5036356;28;20210;-65
2022/11/23 02:57:20;;;;;;;4.10;1.77;;;6.50;99.90;;;;;;5034898;28;20237;-65
2022/11/23 02:59:46;;;;;;;6.40;1.73;;;6.50;99.90;;;;;;5035540;28;20206;-64
2022/11/23 03:02:14;;;;;;;4.90;1.60;;;6.40;99.90;;;;;;5034964;28;20226;-64
2022/11/23 03:04:41;;;;;;;4.17;1.70;;;6.60;99.90;;;;;;5034870;28;20206;-65
2022/11/23 03:07:08;;;;;;;3.70;1.53;;;6.80;99.90;;;;;;5034301;28;20688;-65
2022/11/23 03:09:34;;;;;;;5.70;1.70;;;7.00;99.90;;;;;;5034758;28;20602;-64
2022/11/23 03:12:01;;;;;;;6.07;1.73;;;7.20;99.90;;;;;;5034866;28;20226;-64
2022/11/23 03:14:28;;;;;;;3.80;1.17;;;7.20;99.90;;;;;;5034849;28;20206;-64
2022/11/23 03:16:55;;;;;;;4.67;1.60;;;7.30;99.90;;;;;;5034133;28;20230;-64
2022/11/23 03:19:23;;;;;;;4.77;1.63;;;7.50;99.90;;;;;;5034643;28;20206;-65
2022/11/23 03:21:50;;;;;;;3.07;1.50;;;7.60;99.90;;;;;;5034599;28;20240;-63
2022/11/23 03:24:17;;;;;;;4.17;1.50;;;7.70;99.90;;;;;;5034730;28;20214;-64
2022/11/23 03:26:43;;;;;;;5.17;1.70;;;7.70;99.90;;;;;;5034426;28;20207;-63
2022/11/23 03:29:10;;;;;;;5.73;1.50;;;7.70;99.90;;;;;;5034480;28;20688;-65
2022/11/23 03:31:37;;;;;;;5.13;1.63;;;7.70;99.90;;;;;;5034424;28;20230;-64
2022/11/23 03:34:04;;;;;;;3.17;1.50;;;7.70;99.90;;;;;;5034239;28;20202;-64
2022/11/23 03:36:32;;;;;;;3.63;1.50;;;7.80;99.90;;;;;;5034044;28;20584;-65
2022/11/23 03:38:58;;;;;;;4.13;1.50;;;7.90;99.90;;;;;;5034224;28;20577;-64
2022/11/23 03:41:25;;;;;;;3.23;1.40;;;7.90;99.90;;;;;;5034162;28;20694;-65
2022/11/23 03:43:52;;;;;;;4.43;1.70;;;7.90;99.90;;;;;;5034293;28;20692;-64
2022/11/23 03:46:19;;;;;;;4.03;1.47;;;7.90;99.90;;;;;;5033498;28;20716;-65
2022/11/23 03:48:45;;;;;;;3.17;1.43;;;8.00;99.90;;;;;;5034366;28;20574;-65
2022/11/23 03:51:12;;;;;;;4.93;1.50;;;8.00;99.90;;;;;;5034216;28;20242;-64
2022/11/23 03:53:40;;;;;;;3.17;1.47;;;8.00;99.90;;;;;;5034256;28;20221;-64
2022/11/23 03:56:08;;;;;;;2.73;1.20;;;8.10;99.90;;;;;;5033616;28;20214;-64
2022/11/23 03:58:35;;;;;;;7.57;2.03;;;8.10;99.90;;;;;;5034083;28;20609;-64
2022/11/23 04:01:01;;;;;;;5.20;1.67;;;8.10;99.90;;;;;;5033924;28;20602;-64
2022/11/23 04:03:28;;;;;;;2.53;1.43;;;8.10;99.90;;;;;;5033053;28;20202;-64
2022/11/23 04:05:55;;;;;;;3.23;1.53;;;8.10;99.90;;;;;;5033463;28;20213;-63
2022/11/23 04:08:22;;;;;;;1.97;1.00;;;8.20;99.90;;;;;;5033845;28;20297;-63
2022/11/23 04:10:50;;;;;;;3.10;1.40;;;8.30;99.90;;;;;;5033803;28;20222;-64
2022/11/23 04:13:16;;;;;;;4.47;1.60;;;8.30;99.90;;;;;;5033663;28;20209;-64
2022/11/23 04:15:43;;;;;;;2.13;1.40;;;8.30;99.90;;;;;;5032977;28;20214;-64
2022/11/23 04:18:10;;;;;;;3.57;1.70;;;8.40;99.90;;;;;;5033587;28;20321;-64
2022/11/23 04:20:37;;;;;;;3.07;1.33;;;8.40;99.90;;;;;;5033433;28;20253;-65
2022/11/23 04:23:03;;;;;;;3.77;1.27;;;8.50;99.90;;;;;;5033624;28;20206;-64
2022/11/23 04:25:30;;;;;;;5.83;1.20;;;8.50;99.90;;;;;;5033441;28;20206;-65
2022/11/23 04:27:58;;;;;;;4.97;3.27;;;8.60;99.90;;;;;;5033119;28;20206;-64
2022/11/23 04:30:26;;;;;;;16.80;11.37;;;8.50;99.90;;;;;;5033272;28;20223;-64
2022/11/23 04:32:53;;;;;;;9.50;5.70;;;8.50;99.90;;;;;;5033446;28;20248;-64
2022/11/23 04:35:21;;;;;;;4.87;2.13;;;8.60;99.90;;;;;;5033326;28;20233;-63
2022/11/23 04:37:47;;;;;;;5.90;1.47;;;8.60;99.90;;;;;;5032352;28;20713;-64
2022/11/23 04:40:14;;;;;;;5.07;1.70;;;8.60;99.90;;;;;;5033086;28;20226;-63
2022/11/23 04:42:41;;;;;;;3.57;1.40;;;8.70;99.90;;;;;;5033030;28;20233;-63
2022/11/23 04:45:10;;;;;;;5.13;2.00;;;8.70;99.90;;;;;;5033202;28;20222;-63
2022/11/23 04:47:37;;;;;;;6.90;2.20;;;8.70;99.90;;;;;;5032515;28;20210;-63
2022/11/23 04:50:04;;;;;;;4.03;1.70;;;8.70;99.90;;;;;;5033089;28;20206;-63
2022/11/23 04:52:31;;;;;;;3.77;1.70;;;8.70;99.90;;;;;;5033194;28;20214;-63
2022/11/23 04:54:58;;;;;;;6.93;2.10;;;8.70;99.90;;;;;;5032832;28;20202;-63
2022/11/23 04:57:24;;;;;;;4.73;1.43;;;8.70;99.90;;;;;;5031895;28;20230;-63
2022/11/23 04:59:51;;;;;;;4.37;1.90;;;8.60;99.90;;;;;;5032924;28;20210;-63
2022/11/23 05:02:19;;;;;;;5.70;1.60;;;8.60;99.90;;;;;;5032852;28;20211;-63
2022/11/23 05:04:46;;;;;;;4.63;1.30;;;8.60;99.90;;;;;;5032739;28;20210;-64
2022/11/23 05:07:13;;;;;;;6.13;1.33;;;8.50;99.90;;;;;;5032095;28;20232;-63
2022/11/23 05:09:39;;;;;;;4.07;1.50;;;8.50;99.90;;;;;;5032436;28;20213;-64
2022/11/23 05:12:07;;;;;;;5.77;1.80;;;8.50;99.90;;;;;;5032700;28;20227;-65
2022/11/23 05:14:34;;;;;;;4.23;1.97;;;8.50;99.90;;;;;;5032483;28;20205;-64
2022/11/23 05:17:00;;;;;;;3.90;1.90;;;8.50;99.90;;;;;;5032009;28;20229;-64
2022/11/23 05:19:28;;;;;;;3.70;1.47;;;8.50;99.90;;;;;;5033040;28;20202;-65
2022/11/23 05:21:55;;;;;;;3.33;1.50;;;8.50;99.90;;;;;;5033048;28;20241;-65
2022/11/23 05:24:22;;;;;;;3.23;1.10;;;8.40;99.90;;;;;;5033064;28;20214;-64
2022/11/23 05:26:48;;;;;;;3.23;1.83;;;8.50;99.90;;;;;;5032648;28;20562;-64
2022/11/23 05:29:15;;;;;;;7.73;2.33;;;8.30;99.90;;;;;;5033271;28;20697;-65
2022/11/23 05:31:42;;;;;;;3.47;1.63;;;8.40;99.90;;;;;;5033017;28;20222;-65
2022/11/23 05:34:09;;;;;;;3.80;1.20;;;8.40;99.90;;;;;;5033111;28;20313;-64
2022/11/23 05:36:37;;;;;;;6.03;1.63;;;8.40;99.90;;;;;;5031593;28;20244;-64
2022/11/23 05:39:04;;;;;;;4.33;1.93;;;8.40;99.90;;;;;;5032380;28;20222;-64
2022/11/23 05:41:30;;;;;;;2.70;1.40;;;8.50;99.90;;;;;;5032355;28;20226;-64
2022/11/23 05:43:57;;;;;;;5.03;1.63;;;8.50;99.90;;;;;;5033338;28;20240;-64
2022/11/23 05:46:24;;;;;;;5.80;1.70;;;8.50;99.90;;;;;;5032653;28;20213;-64
2022/11/23 05:48:50;;;;;;;5.67;1.87;;;8.50;99.90;;;;;;5032616;28;20230;-63
2022/11/23 05:51:17;;;;;;;4.07;1.63;;;8.30;99.90;;;;;;5032397;28;20235;-63
2022/11/23 05:53:45;;;;;;;7.57;2.40;;;8.30;99.90;;;;;;5033853;28;20214;-63
2022/11/23 05:56:12;;;;;;;5.70;2.10;;;8.30;99.90;;;;;;5031651;28;20611;-65
2022/11/23 05:58:39;;;;;;;5.13;1.60;;;8.20;99.90;;;;;;5032353;28;20237;-65
2022/11/23 06:01:06;;;;;;;4.97;1.93;;;8.20;99.90;;;;;;5032241;28;20293;-65
2022/11/23 06:03:33;;;;;;;5.60;1.73;;;8.10;99.90;;;;;;5032249;28;20233;-65
2022/11/23 06:05:59;;;;;;;6.83;1.90;;;8.10;99.90;;;;;;5031244;28;20210;-65
2022/11/23 06:08:26;;;;;;;4.67;1.53;;;8.10;99.90;;;;;;5032052;28;20198;-64
2022/11/23 06:10:54;;;;;;;6.67;2.43;;;8.00;99.90;;;;;;5032074;28;20232;-64
2022/11/23 06:13:21;;;;;;;4.03;2.20;;;7.90;99.90;;;;;;5032081;28;20210;-64
2022/11/23 06:15:47;;;;;;;2.97;1.70;;;7.70;99.90;;;;;;5031991;28;20216;-65
2022/11/23 06:18:14;;;;;;;3.87;1.80;;;7.50;99.90;;;;;;5031690;28;20226;-64
2022/11/23 06:20:41;;;;;;;2.53;1.70;;;7.40;99.90;;;;;;5031965;28;20261;-65
2022/11/23 06:23:07;;;;;;;7.57;1.90;;;7.40;99.90;;;;;;5032727;28;20210;-65
2022/11/23 06:25:36;;;;;;;5.00;1.80;;;7.30;99.90;;;;;;5032718;28;20214;-65
2022/11/23 06:28:05;;;;;;;5.13;1.90;;;7.10;99.90;;;;;;5035115;28;20598;-65
2022/11/23 06:30:32;;;;;;;4.57;1.57;;;7.00;99.90;;;;;;5036848;28;20230;-64
2022/11/23 06:33:03;;;;;;;4.37;1.60;;;6.90;99.90;;;;;;5036325;28;20210;-64
2022/11/23 06:35:30;;;;;;;6.07;2.03;;;6.80;99.90;;;;;;5036680;28;20569;-64
2022/11/23 06:37:57;;;;;;;6.30;2.07;;;6.60;99.90;;;;;;5036547;28;20226;-64
2022/11/23 06:40:24;;;;;;;6.73;2.07;;;6.50;99.90;;;;;;5039095;28;20234;-64
2022/11/23 06:42:52;;;;;;;5.03;2.60;;;6.40;99.90;;;;;;5039516;28;20206;-64
2022/11/23 06:45:20;;;;;;;4.63;2.00;;;6.30;99.90;;;;;;5038935;28;20206;-64
2022/11/23 06:47:47;;;;;;;9.73;2.97;;;6.30;99.90;;;;;;5036491;28;20216;-64
2022/11/23 06:50:14;;;;;;;8.47;2.83;;;6.10;99.90;;;;;;5037518;28;20226;-64
2022/11/23 06:52:41;;;;;;;6.53;2.17;;;5.90;99.90;;;;;;5038290;28;20210;-63
2022/11/23 06:55:08;;;;;;;5.03;2.60;;;5.90;99.90;;;;;;5037732;28;20284;-64
2022/11/23 06:57:34;;;;;;;29.63;16.97;;;5.80;99.90;;;;;;5036714;28;20206;-64
2022/11/23 07:00:01;;;;;;;7.00;2.20;;;5.80;99.90;;;;;;5037608;28;20206;-63
2022/11/23 07:02:29;;;;;;;5.07;2.47;;;5.80;99.90;;;;;;5037227;28;20298;-64
2022/11/23 07:04:56;;;;;;;4.93;3.23;;;5.80;99.90;;;;;;5037226;28;20207;-64
2022/11/23 07:07:23;;;;;;;5.97;2.90;;;5.70;99.90;;;;;;5039452;28;20218;-64
2022/11/23 07:09:49;;;;;;;4.80;2.40;;;5.60;99.90;;;;;;5038708;28;20206;-63
2022/11/23 07:12:16;;;;;;;5.83;2.10;;;5.60;99.90;;;;;;5041652;28;20630;-63
2022/11/23 07:14:43;;;;;;;4.33;2.13;;;5.50;99.90;;;;;;5040476;28;20206;-63
2022/11/23 07:17:09;;;;;;;4.83;2.43;;;5.50;99.90;;;;;;5037525;28;20210;-63
2022/11/23 07:19:38;;;;;;;7.60;2.60;;;5.50;99.90;;;;;;5037478;28;20516;-72
2022/11/23 07:22:05;;;;;;;6.30;2.57;;;5.40;99.90;;;;;;5069074;22;20643;-56
2022/11/23 07:24:31;;;;;;;3.43;2.30;;;5.50;99.90;;;;;;5048125;28;20273;-56
2022/11/23 07:26:58;;;;;;;5.23;2.20;;;5.50;99.90;;;;;;5055550;28;20214;-56
2022/11/23 07:29:25;;;;;;;6.33;2.40;;;5.50;99.90;;;;;;5055676;28;20225;-56
2022/11/23 07:31:52;;;;;;;5.80;2.30;;;5.60;99.90;;;;;;5055989;28;20225;-56
2022/11/23 07:34:19;;;;;;;5.13;2.33;;;5.60;99.90;;;;;;5056049;28;20233;-56
2022/11/23 07:36:47;;;;;;;6.30;2.83;;;5.70;99.90;;;;;;5054506;28;20256;-56
2022/11/23 07:39:14;;;;;;;7.57;2.93;;;5.80;99.90;;;;;;5055014;28;20312;-56
2022/11/23 07:41:41;;;;;;;4.23;2.17;;;5.80;99.90;;;;;;5054934;28;20221;-56
2022/11/23 07:44:08;;;;;;;4.83;2.20;;;5.70;99.90;;;;;;5054671;28;20661;-56
2022/11/23 07:46:35;;;;;;;5.13;2.07;;;5.70;99.90;;;;;;5054489;28;20205;-57
2022/11/23 07:49:02;;;;;;;5.60;2.17;;;5.80;99.90;;;;;;5054752;28;20213;-56
2022/11/23 07:51:29;;;;;;;6.07;2.33;;;5.90;99.90;;;;;;5055079;28;20233;-57
2022/11/23 07:53:57;;;;;;;7.00;2.43;;;5.90;99.90;;;;;;5054886;28;20214;-58
2022/11/23 07:56:24;;;;;;;6.57;2.77;;;5.90;99.90;;;;;;5054270;28;20212;-55
2022/11/23 07:58:51;;;;;;;10.60;3.57;;;5.90;99.90;;;;;;5054756;28;20229;-58
2022/11/23 08:01:19;;;;;;;6.33;2.73;;;5.90;99.90;;;;;;5054395;28;20582;-56
2022/11/23 08:03:47;;;;;;;5.07;2.40;;;5.90;99.90;;;;;;5054417;28;20669;-56
2022/11/23 08:06:15;;;;;;;4.47;2.50;;;5.80;99.90;;;;;;5054062;28;20661;-57
2022/11/23 08:08:43;;;;;;;6.27;2.10;;;5.90;99.90;;;;;;5054622;28;20208;-57
2022/11/23 08:11:13;;;;;;;4.77;2.10;;;6.00;99.90;;;;;;5054480;28;20656;-57
2022/11/23 08:13:40;;;;;;;3.57;2.10;;;6.00;99.90;;;;;;5054392;28;20225;-57
2022/11/23 08:16:07;;;;;;;7.40;2.30;;;6.00;99.90;;;;;;5053902;28;20292;-57
2022/11/23 08:18:34;;;;;;;6.37;1.80;;;6.20;99.90;;;;;;5053921;28;20217;-57
2022/11/23 08:21:01;;;;;;;4.40;1.87;;;6.30;99.90;;;;;;5054041;28;20285;-57
2022/11/23 08:23:29;;;;;;;3.43;1.70;;;6.50;99.90;;;;;;5054164;28;20209;-56
2022/11/23 08:25:56;;;;;;;7.50;1.93;;;6.40;99.90;;;;;;5054224;28;20236;-57
2022/11/23 08:28:24;;;;;;;6.07;2.07;;;6.40;99.90;;;;;;5053388;28;20197;-57
2022/11/23 08:30:51;;;;;;;4.83;2.10;;;6.50;99.90;;;;;;5053749;28;20419;-57
2022/11/23 08:33:18;;;;;;;6.50;2.13;;;6.50;99.90;;;;;;5053704;28;20208;-57
2022/11/23 08:35:44;;;;;;;5.57;2.30;;;6.60;99.90;;;;;;5053586;28;20205;-58
2022/11/23 08:38:11;;;;;;;5.87;2.40;;;6.70;99.90;;;;;;5052871;28;20212;-57
2022/11/23 08:40:39;;;;;;;7.10;2.30;;;6.90;99.90;;;;;;5053824;28;20577;-57
2022/11/23 08:43:06;;;;;;;4.63;2.33;;;7.20;99.90;;;;;;5053644;28;20208;-57
2022/11/23 08:45:35;;;;;;;7.70;2.33;;;7.40;99.90;;;;;;5053743;28;20205;-57
2022/11/23 08:48:02;;;;;;;6.07;2.17;;;7.70;99.90;;;;;;5052883;28;20209;-57
2022/11/23 08:50:29;;;;;;;3.40;2.47;;;7.90;99.90;;;;;;5052948;28;20260;-57
2022/11/23 08:52:57;;;;;;;5.23;2.03;;;8.20;99.90;;;;;;5053575;28;20205;-58
2022/11/23 08:55:24;;;;;;;5.80;2.20;;;8.20;99.90;;;;;;5053213;28;20201;-57
2022/11/23 08:57:51;;;;;;;6.10;2.43;;;8.30;99.90;;;;;;5052634;28;20205;-57
2022/11/23 09:00:19;;;;;;;4.77;1.73;;;8.30;99.90;;;;;;5053554;28;20224;-57
2022/11/23 09:02:47;;;;;;;7.50;2.10;;;8.40;99.90;;;;;;5053104;28;20702;-57
2022/11/23 09:05:14;;;;;;;4.67;1.80;;;8.50;99.90;;;;;;5052896;28;20210;-58
2022/11/23 09:07:41;;;;;;;3.67;2.00;;;8.80;99.90;;;;;;5053257;28;20240;-58
2022/11/23 09:10:08;;;;;;;3.73;1.63;;;9.00;99.90;;;;;;5053475;28;20197;-57
2022/11/23 09:12:35;;;;;;;5.57;1.80;;;9.20;99.90;;;;;;5053543;28;20210;-57
2022/11/23 09:15:02;;;;;;;5.07;1.50;;;9.30;99.90;;;;;;5053724;28;20202;-57
2022/11/23 09:17:31;;;;;;;5.00;1.53;;;9.30;99.90;;;;;;5052810;28;20206;-58
2022/11/23 09:19:59;;;;;;;4.80;1.70;;;9.40;99.90;;;;;;5053342;28;20799;-58
2022/11/23 09:22:26;;;;;;;6.43;1.60;;;9.50;99.90;;;;;;5053403;28;20316;-57
2022/11/23 09:24:53;;;;;;;5.53;1.47;;;9.70;99.90;;;;;;5053350;28;20232;-57
2022/11/23 09:27:20;;;;;;;2.37;1.40;;;9.80;99.90;;;;;;5053091;28;20205;-57
2022/11/23 09:29:47;;;;;;;4.03;1.60;;;9.80;99.90;;;;;;5053155;28;20230;-58
2022/11/23 09:32:14;;;;;;;5.57;1.57;;;9.80;99.90;;;;;;5053046;28;20251;-58
2022/11/23 09:34:40;;;;;;;3.73;1.63;;;9.90;99.90;;;;;;5053124;28;20213;-57
2022/11/23 09:37:08;;;;;;;3.80;1.77;;;10.00;99.90;;;;;;5052564;28;20216;-58
2022/11/23 09:39:35;;;;;;;3.67;1.80;;;10.10;99.90;;;;;;5052782;28;20681;-57
2022/11/23 09:42:36;;;;;;;4.43;1.50;;;10.00;99.90;;;;;;5052630;28;20225;-58
2022/11/23 09:45:14;;;;;;;2.47;1.30;;;10.00;99.90;;;;;;5052693;28;20205;-57
2022/11/23 09:48:02;;;;;;;5.27;1.60;;;10.10;99.90;;;;;;5051882;28;20227;-57
2022/11/23 09:50:34;;;;;;;2.87;1.80;;;10.20;99.90;;;;;;5052386;28;20233;-57
2022/11/23 09:53:09;;;;;;;7.57;2.10;;;10.30;99.90;;;;;;5052323;28;20209;-58
2022/11/23 09:55:40;;;;;;;5.50;2.70;;;10.20;99.90;;;;;;5052560;28;20212;-58
2022/11/23 09:58:12;;;;;;;7.70;3.27;;;10.30;99.90;;;;;;5052181;28;20224;-58
2022/11/23 10:00:44;;;;;;;4.23;1.87;;;10.40;99.90;;;;;;5052358;28;20237;-58
2022/11/23 10:03:14;;;;;;;4.30;1.30;;;10.50;99.90;;;;;;5055898;28;20213;-58
2022/11/23 10:05:47;;;;;;;2.83;1.23;;;10.60;99.90;;;;;;5056475;28;20201;-57
2022/11/23 10:08:26;;;;;;;6.40;1.37;;;10.70;99.90;;;;;;5056116;28;20580;-57
2022/11/23 10:11:03;;;;;;;4.47;1.63;;;10.80;99.90;;;;;;5056914;28;20294;-57
2022/11/23 10:13:36;;;;;;;2.93;1.10;;;11.00;99.90;;;;;;5056677;28;20216;-58
2022/11/23 10:16:23;;;;;;;5.07;1.20;;;11.00;99.90;;;;;;5056414;28;20669;-57
2022/11/23 10:18:59;;;;;;;6.53;2.97;;;11.10;99.90;;;;;;5056565;28;20260;-58
2022/11/23 10:21:37;;;;;;;5.07;2.13;;;11.20;99.90;;;;;;5056133;28;20236;-58
2022/11/23 10:24:18;;;;;;;45.73;24.67;;;11.20;99.90;;;;;;5056191;28;20244;-58
2022/11/23 10:26:46;;;;;;;5.40;2.50;;;11.30;99.90;;;;;;5055569;28;20201;-58
2022/11/23 10:29:17;;;;;;;5.10;1.60;;;11.30;99.90;;;;;;5056588;28;20197;-61
2022/11/23 10:31:48;;;;;;;3.90;1.40;;;11.40;99.90;;;;;;5056430;28;20225;-58
2022/11/23 10:34:17;;;;;;;4.50;1.70;;;11.40;99.90;;;;;;5056337;28;20259;-57
2022/11/23 10:36:44;;;;;;;9.50;2.00;;;11.40;99.90;;;;;;5055345;28;20206;-57
2022/11/23 10:39:21;;;;;;;6.80;3.00;;;11.50;99.90;;;;;;5056334;28;20225;-58
2022/11/23 10:41:49;;;;;;;5.47;1.70;;;11.50;99.90;;;;;;5055922;28;20771;-58
2022/11/23 10:44:28;;;;;;;4.87;1.87;;;11.60;99.90;;;;;;5056145;28;20296;-58
2022/11/23 10:46:55;;;;;;;3.77;1.80;;;11.70;99.90;;;;;;5055476;28;20205;-58
2022/11/23 10:49:23;;;;;;;4.73;1.60;;;11.70;99.90;;;;;;5055580;28;20769;-58
2022/11/23 10:51:53;;;;;;;4.63;1.67;;;11.70;99.90;;;;;;5055770;28;20226;-58
2022/11/23 10:54:24;;;;;;;4.17;1.80;;;11.80;99.90;;;;;;5056206;28;20206;-58
2022/11/23 10:56:53;;;;;;;4.70;2.00;;;11.90;99.90;;;;;;5055398;28;20208;-57
2022/11/23 10:59:31;;;;;;;5.73;1.80;;;11.90;99.90;;;;;;5055672;28;20225;-58
2022/11/23 11:02:10;;;;;;;4.73;2.10;;;12.00;99.90;;;;;;5055739;28;20657;-58
2022/11/23 11:04:37;;;;;;;3.53;1.73;;;12.00;99.90;;;;;;5055789;28;20206;-59
2022/11/23 11:07:18;;;;;;;6.20;1.50;;;12.10;99.90;;;;;;5055043;28;20587;-59
2022/11/23 11:09:54;;;;;;;4.60;1.67;;;12.20;99.90;;;;;;5055695;28;20205;-59
2022/11/23 11:12:21;;;;;;;3.23;1.93;;;12.30;99.90;;;;;;5054574;28;20229;-58
2022/11/23 11:15:02;;;;;;;4.37;1.57;;;12.40;99.90;;;;;;5055778;28;20213;-59
2022/11/23 11:17:31;;;;;;;5.27;2.10;;;12.40;99.90;;;;;;5055297;28;20216;-59
2022/11/23 11:19:58;;;;;;;5.43;1.77;;;12.50;99.90;;;;;;5055668;28;20234;-59
2022/11/23 11:22:29;;;;;;;2.97;1.43;;;12.50;99.90;;;;;;5055300;28;20324;-59
2022/11/23 11:24:57;;;;;;;4.67;2.13;;;12.60;99.90;;;;;;5055437;28;20233;-58
2022/11/23 11:27:26;;;;;;;6.63;1.60;;;12.50;99.90;;;;;;5055037;28;20297;-59
2022/11/23 11:29:56;;;;;;;3.73;1.40;;;12.60;99.90;;;;;;5055365;28;20210;-60
2022/11/23 11:32:30;;;;;;;4.20;1.77;;;12.60;99.90;;;;;;5055488;28;20229;-59
2022/11/23 11:35:03;;;;;;;4.07;1.63;;;12.60;99.90;;;;;;5055826;28;20206;-59
2022/11/23 11:37:35;;;;;;;3.13;1.50;;;12.70;99.90;;;;;;5054944;28;20197;-59
2022/11/23 11:40:10;;;;;;;2.97;1.50;;;12.70;99.90;;;;;;5055146;28;20268;-59
2022/11/23 11:42:42;;;;;;;5.77;1.93;;;12.80;99.90;;;;;;5055704;28;20643;-59
2022/11/23 11:45:16;;;;;;;5.17;1.40;;;12.80;99.90;;;;;;5050547;28;20211;-59
2022/11/23 11:47:50;;;;;;;5.23;1.80;;;12.80;99.90;;;;;;5031187;28;20301;-58
2022/11/23 11:50:23;;;;;;;3.53;1.37;;;12.80;99.90;;;;;;5040843;28;20600;-58
2022/11/23 11:52:55;;;;;;;3.27;1.33;;;12.90;99.90;;;;;;5054097;28;20240;-59
2022/11/23 11:55:26;;;;;;;3.83;1.30;;;12.90;99.90;;;;;;5038172;28;20207;-59
2022/11/23 11:58:02;;;;;;;3.47;1.20;;;12.70;99.90;;;;;;5033122;28;20206;-58
2022/11/23 12:00:33;;;;;;;3.23;1.50;;;12.70;99.90;;;;;;5033341;28;20286;-59
2022/11/23 12:03:07;;;;;;;6.63;2.03;;;12.80;99.90;;;;;;5033140;28;20216;-58
2022/11/23 12:05:40;;;;;;;2.57;1.47;;;12.90;99.90;;;;;;5033645;28;20207;-59
2022/11/23 12:08:11;;;;;;;3.80;1.60;;;13.10;99.90;;;;;;5032967;28;20244;-59
2022/11/23 12:10:45;;;;;;;4.23;2.17;;;13.20;99.90;;;;;;5033302;28;20725;-59
2022/11/23 12:13:15;;;;;;;3.37;1.30;;;13.20;99.90;;;;;;5034117;28;20293;-59
2022/11/23 12:15:46;;;;;;;2.63;1.20;;;13.30;99.90;;;;;;5034732;28;20223;-62
2022/11/23 12:18:31;;;;;;;2.53;1.13;;;13.40;99.90;;;;;;5033869;28;20563;-61
2022/11/23 12:21:03;;;;;;;3.00;0.90;;;13.30;99.90;;;;;;5033071;28;20321;-61
2022/11/23 12:23:42;;;;;;;2.53;0.80;;;13.30;99.90;;;;;;5034359;28;20642;-61
2022/11/23 12:26:20;;;;;;;6.53;1.13;;;13.40;99.90;;;;;;5033649;28;20202;-61
2022/11/23 12:29:16;;;;;;;2.40;1.23;;;13.30;99.90;;;;;;5033291;28;20232;-61
2022/11/23 12:31:48;;;;;;;3.20;1.67;;;13.40;99.90;;;;;;5033559;28;20230;-61
2022/11/23 12:34:36;;;;;;;2.83;0.87;;;13.40;99.90;;;;;;5033732;28;20293;-61
2022/11/23 12:37:29;;;;;;;4.20;1.00;;;13.40;99.90;;;;;;5033442;28;20214;-60
2022/11/23 12:40:23;;;;;;;2.93;1.40;;;13.40;99.90;;;;;;5033652;28;20314;-61
2022/11/23 12:42:58;;;;;;;2.70;1.13;;;13.40;99.90;;;;;;5033688;28;20712;-61
2022/11/23 12:45:45;;;;;;;2.37;1.00;;;13.40;99.90;;;;;;5033741;28;20289;-61
2022/11/23 12:48:33;;;;;;;2.40;1.10;;;13.40;99.90;;;;;;5033305;28;20237;-61
2022/11/23 12:51:13;;;;;;;1.70;0.83;;;13.40;99.90;;;;;;5033631;28;20764;-59
2022/11/23 12:53:50;;;;;;;1.70;1.00;;;13.30;99.90;;;;;;5033895;28;20202;-61
2022/11/23 12:56:28;;;;;;;2.70;0.90;;;13.30;99.90;;;;;;5033410;28;20378;-61
2022/11/23 12:58:57;;;;;;;3.93;1.60;;;13.30;99.90;;;;;;5033058;28;20257;-61
2022/11/23 13:01:30;;;;;;;2.07;1.13;;;13.40;99.90;;;;;;5033127;28;20586;-62
2022/11/23 13:04:45;;;;;;;2.10;1.10;;;13.40;99.90;;;;;;5033276;28;20666;-61
2022/11/23 13:07:42;;;;;;;1.50;0.73;;;13.40;99.90;;;;;;4971869;28;20246;-61